Time;durP1;ratioP1;P1;durP2;ratioP2;P2;SDS_P1;SDS_P2;PMS_P1;PMS_P2;Temp;Humidity;BMP_temperature;BMP_pressure;BME280_temperature;BME280_humidity;BME280_pressure;Samples;Min_cycle;Max_cycle;Signal;HPM_P1;HPM_P2
2022/08/27 00:01:08;;;;;;;;;;;18.20;99.90;;;17.35;100.00;95385.16;10516412;28;1937;-69
2022/08/27 00:06:15;;;;;;;;;;;18.30;99.90;;;17.33;100.00;95378.47;10510859;28;1932;-71
2022/08/27 00:11:19;;;;;;;;;;;18.20;99.90;;;17.36;100.00;95388.66;10518057;28;2161;-71
2022/08/27 00:16:22;;;;;;;;;;;18.00;99.90;;;17.36;100.00;95383.25;10516636;28;2123;-82
2022/08/27 00:21:25;;;;;;;;;;;18.20;99.90;;;17.31;100.00;95386.97;10520954;28;2301;-80
2022/08/27 00:26:28;;;;;;;;;;;18.20;99.90;;;17.26;100.00;95404.22;10519316;28;2054;-79
2022/08/27 00:31:32;;;;;;;;;;;18.20;99.90;;;17.25;100.00;95409.97;10515747;28;1949;-82
2022/08/27 00:36:34;;;;;;;;;;;18.20;99.90;;;17.33;100.00;95413.78;10522412;28;1932;-83
2022/08/27 00:41:38;;;;;;;;;;;18.20;99.90;;;17.40;100.00;95419.50;10511585;28;1999;-82
2022/08/27 00:46:41;;;;;;;;;;;18.30;99.90;;;17.39;100.00;95423.34;10518438;28;2220;-82
2022/08/27 00:51:44;;;;;;;;;;;18.30;99.90;;;17.25;100.00;95420.84;10513824;28;2101;-83
2022/08/27 00:56:51;;;;;;;;;;;18.20;99.90;;;17.22;100.00;95410.63;10496416;28;1947;-82
2022/08/27 01:07:14;;;;;;;;;;;18.10;99.90;;;17.17;100.00;95403.44;10475817;28;2052;-84
2022/08/27 01:12:18;;;;;;;;;;;18.20;99.90;;;17.14;100.00;95393.22;10491849;28;2059;-84
2022/08/27 01:17:21;;;;;;;;;;;18.10;99.90;;;17.22;100.00;95395.13;10487878;28;2145;-84
2022/08/27 01:22:24;;;;;;;;;;;18.10;99.90;;;17.27;100.00;95389.50;10487697;28;2324;-83
2022/08/27 01:27:27;;;;;;;;;;;18.20;99.90;;;17.18;100.00;95393.41;10482961;28;1965;-83
2022/08/27 01:32:30;;;;;;;;;;;18.20;99.90;;;17.11;100.00;95396.59;10487853;28;1929;-81
2022/08/27 01:37:33;;;;;;;;;;;18.10;99.90;;;17.19;100.00;95395.78;10490561;28;1964;-87
2022/08/27 01:42:37;;;;;;;;;;;18.10;99.90;;;17.16;100.00;95399.13;10486791;28;2016;-87
2022/08/27 01:47:52;;;;;;;;;;;18.10;99.90;;;17.22;100.00;95397.03;10495617;28;2034;-88
2022/08/27 01:52:55;;;;;;;;;;;18.10;99.90;;;17.27;100.00;95397.66;10477473;28;2049;-86
2022/08/27 01:57:58;;;;;;;;;;;18.20;99.90;;;17.38;100.00;95403.53;10486654;28;2113;-87
2022/08/27 02:03:01;;;;;;;;;;;18.20;99.90;;;17.49;100.00;95398.53;10484194;28;2113;-79
2022/08/27 02:08:03;;;;;;;;;;;18.30;99.90;;;17.67;100.00;95399.25;10471639;28;1905;-80
2022/08/27 02:13:07;;;;;;;;;;;18.40;99.90;;;17.69;100.00;95386.94;10485924;28;2080;-82
2022/08/27 02:18:10;;;;;;;;;;;18.60;99.90;;;17.67;100.00;95391.88;10481670;28;2023;-85
2022/08/27 02:23:13;;;;;;;;;;;18.60;99.90;;;17.70;100.00;95385.00;10469615;28;1976;-83
2022/08/27 02:28:16;;;;;;;;;;;18.60;99.90;;;17.73;100.00;95374.31;10489532;28;2043;-80
2022/08/27 02:33:19;;;;;;;;;;;18.60;99.90;;;17.65;100.00;95374.31;10469655;28;1788;-80
2022/08/27 02:38:23;;;;;;;;;;;18.60;99.90;;;17.68;100.00;95373.66;10487561;28;2124;-79
2022/08/27 02:43:28;;;;;;;;;;;18.60;99.90;;;17.72;100.00;95375.44;10487454;28;2157;-82
2022/08/27 02:48:31;;;;;;;;;;;18.60;99.90;;;17.74;100.00;95373.16;10491343;28;1972;-83
2022/08/27 02:53:33;;;;;;;;;;;18.60;99.90;;;17.74;100.00;95366.94;10488087;28;1869;-81
2022/08/27 02:58:37;;;;;;;;;;;18.60;99.90;;;17.75;100.00;95373.97;10482482;28;1960;-77
2022/08/27 03:03:40;;;;;;;;;;;18.60;99.90;;;17.71;100.00;95373.00;10481125;28;1951;-78
2022/08/27 03:08:43;;;;;;;;;;;18.70;99.90;;;17.53;100.00;95375.03;10485350;28;1941;-78
2022/08/27 03:13:55;;;;;;;;;;;18.60;99.90;;;17.45;100.00;95386.72;10471565;28;2128;-78
2022/08/27 03:18:58;;;;;;;;;;;18.50;99.90;;;17.35;100.00;95387.09;10486272;28;1956;-81
2022/08/27 03:24:01;;;;;;;;;;;18.40;99.90;;;17.19;100.00;95395.78;10486739;28;1912;-81
2022/08/27 03:29:13;;;;;;;;;;;18.30;99.90;;;17.17;100.00;95397.22;10481706;28;2013;-79
2022/08/27 03:34:15;;;;;;;;;;;18.20;99.90;;;17.17;100.00;95399.91;10483559;28;1964;-79
2022/08/27 03:39:21;;;;;;;;;;;18.20;99.90;;;17.12;100.00;95403.63;10480802;28;1850;-82
2022/08/27 03:44:24;;;;;;;;;;;18.10;99.90;;;17.12;100.00;95400.91;10489388;28;1905;-78
2022/08/27 03:49:27;;;;;;;;;;;18.10;99.90;;;17.08;100.00;95397.25;10464285;28;1926;-79
2022/08/27 03:54:31;;;;;;;;;;;18.10;99.90;;;17.02;100.00;95398.53;10478990;28;1909;-77
2022/08/27 03:59:34;;;;;;;;;;;18.10;99.90;;;17.03;100.00;95391.97;10474522;28;2003;-76
2022/08/27 04:04:37;;;;;;;;;;;18.00;99.90;;;17.09;100.00;95395.31;10484518;28;2148;-76
2022/08/27 04:09:41;;;;;;;;;;;18.00;99.90;;;17.05;100.00;95395.19;10478067;28;2256;-75
2022/08/27 04:14:44;;;;;;;;;;;18.00;99.90;;;17.06;100.00;95396.78;10480762;28;2168;-77
2022/08/27 04:19:46;;;;;;;;;;;18.00;99.90;;;17.15;100.00;95396.75;10480078;28;1924;-79
2022/08/27 04:24:49;;;;;;;;;;;18.00;99.90;;;17.11;100.00;95404.72;10478746;28;1981;-80
2022/08/27 04:29:52;;;;;;;;;;;18.10;99.90;;;17.16;100.00;95410.00;10481899;28;1969;-80
2022/08/27 04:34:55;;;;;;;;;;;18.00;99.90;;;17.13;100.00;95407.94;10492080;28;1967;-80
2022/08/27 04:39:58;;;;;;;;;;;18.10;99.90;;;17.16;100.00;95418.13;10491028;28;1958;-79
2022/08/27 04:45:01;;;;;;;;;;;18.10;99.90;;;17.23;100.00;95410.28;10468089;28;1985;-80
2022/08/27 04:50:05;;;;;;;;;;;18.10;99.90;;;17.28;100.00;95412.84;10487926;28;2296;-80
2022/08/27 04:55:10;;;;;;;;;;;18.10;99.90;;;17.23;100.00;95409.50;10490986;28;1984;-80
2022/08/27 05:00:12;;;;;;;;;;;18.20;99.90;;;17.28;100.00;95415.53;10488483;28;1972;-79
2022/08/27 05:05:15;;;;;;;;;;;18.10;99.90;;;17.34;100.00;95418.09;10486706;28;1975;-80
2022/08/27 05:10:18;;;;;;;;;;;18.20;99.90;;;17.64;100.00;95417.03;10486497;28;2140;-81
2022/08/27 05:15:21;;;;;;;;;;;18.30;99.90;;;17.69;100.00;95419.56;10485828;28;1980;-81
2022/08/27 05:20:25;;;;;;;;;;;18.50;99.90;;;17.78;100.00;95416.81;10486324;28;1946;-85
2022/08/27 05:25:29;;;;;;;;;;;18.60;99.90;;;17.87;100.00;95409.41;10470357;28;1992;-84
2022/08/27 05:30:31;;;;;;;;;;;18.60;99.90;;;17.75;100.00;95412.84;10489718;28;1997;-83
2022/08/27 05:35:34;;;;;;;;;;;18.60;99.90;;;17.85;100.00;95413.59;10487097;28;2095;-83
2022/08/27 05:40:37;;;;;;;;;;;18.60;99.90;;;17.92;100.00;95408.41;10491507;28;2000;-83
2022/08/27 05:45:40;;;;;;;;;;;18.70;99.90;;;18.01;100.00;95409.19;10481549;28;2253;-82
2022/08/27 05:50:43;;;;;;;;;;;18.70;99.90;;;18.07;100.00;95405.16;10464905;28;2065;-83
2022/08/27 05:55:46;;;;;;;;;;;18.80;99.90;;;18.37;100.00;95405.88;10479107;28;2077;-82
2022/08/27 06:01:04;;;;;;;;;;;19.00;99.90;;;18.41;100.00;95408.75;10486937;28;1909;-82
2022/08/27 06:06:11;;;;;;;;;;;19.10;99.90;;;18.53;100.00;95408.81;10480289;28;2009;-81
2022/08/27 06:11:14;;;;;;;;;;;19.20;99.90;;;18.67;100.00;95416.72;10480579;28;1948;-80
2022/08/27 06:16:18;;;;;;;;;;;19.30;99.90;;;18.67;100.00;95414.00;10480818;28;1913;-80
2022/08/27 06:21:21;;;;;;;;;;;19.40;99.90;;;18.75;100.00;95422.06;10481356;28;1987;-78
2022/08/27 06:26:26;;;;;;;;;;;19.40;99.90;;;18.82;100.00;95416.09;10482192;28;2027;-78
2022/08/27 06:31:29;;;;;;;;;;;19.50;99.90;;;19.27;100.00;95405.22;10481191;28;1901;-79
2022/08/27 06:36:33;;;;;;;;;;;19.70;99.90;;;19.75;100.00;95402.91;10482580;28;1920;-79
2022/08/27 06:41:36;;;;;;;;;;;20.10;99.90;;;19.90;100.00;95411.19;10486725;28;1932;-80
2022/08/27 06:46:38;;;;;;;;;;;20.40;99.90;;;20.58;100.00;95407.03;10488093;28;2176;-79
2022/08/27 06:51:41;;;;;;;;;;;20.70;99.90;;;20.77;100.00;95404.47;10493808;28;1956;-84
2022/08/27 06:56:44;;;;;;;;;;;21.10;99.90;;;21.10;100.00;95406.91;10505359;28;1964;-80
2022/08/27 07:01:47;;;;;;;;;;;21.50;99.90;;;21.11;100.00;95407.72;10477783;28;1973;-81
2022/08/27 07:06:51;;;;;;;;;;;21.60;99.90;;;21.17;100.00;95395.38;10457236;28;2174;-83
2022/08/27 07:11:54;;;;;;;;;;;21.60;99.90;;;21.17;100.00;95406.31;10480922;28;1944;-85
2022/08/27 07:16:57;;;;;;;;;;;21.70;99.90;;;20.72;100.00;95412.88;10490134;28;1797;-84
2022/08/27 07:22:00;;;;;;;;;;;21.60;99.90;;;20.78;100.00;95419.69;10499083;28;2003;-84
2022/08/27 07:27:03;;;;;;;;;;;21.40;99.90;;;20.36;100.00;95417.31;10506220;28;1999;-82
2022/08/27 07:32:06;;;;;;;;;;;21.30;99.90;;;20.23;100.00;95426.63;10487606;28;1964;-86
2022/08/27 07:37:09;;;;;;;;;;;21.10;99.90;;;20.41;100.00;95427.97;10486182;28;2027;-84
2022/08/27 07:47:32;;;;;;;;;;;21.00;99.90;;;20.64;100.00;95435.69;10484868;28;2011;-82
2022/08/27 07:52:35;;;;;;;;;;;21.20;99.90;;;21.22;100.00;95430.66;10479865;28;1960;-82
2022/08/27 07:57:38;;;;;;;;;;;21.50;99.90;;;21.48;100.00;95432.94;10483545;28;1902;-83
2022/08/27 08:02:43;;;;;;;;;;;21.90;99.90;;;21.95;100.00;95429.41;10485897;28;2148;-80
2022/08/27 08:07:46;;;;;;;;;;;22.20;99.90;;;21.87;100.00;95439.38;10489574;28;1955;-85
2022/08/27 08:12:49;;;;;;;;;;;22.30;99.90;;;21.92;100.00;95439.13;10475064;28;2000;-73
2022/08/27 08:17:52;;;;;;;;;;;22.30;99.90;;;22.24;100.00;95447.31;10485501;28;2017;-78
2022/08/27 08:22:55;;;;;;;;;;;22.50;99.90;;;22.20;100.00;95447.22;10489749;28;2119;-72
2022/08/27 08:27:58;;;;;;;;;;;22.60;99.90;;;22.50;97.74;95453.00;10489166;28;1878;-76
2022/08/27 08:33:01;;;;;;;;;;;22.80;99.90;;;22.80;95.40;95456.00;10487906;28;2141;-73
2022/08/27 08:38:04;;;;;;;;;;;23.00;99.90;;;21.95;100.00;95446.63;10489532;28;2140;-73
2022/08/27 08:43:07;;;;;;;;;;;22.80;99.90;;;22.89;98.78;95453.88;10489475;28;1946;-73
2022/08/27 08:48:10;;;;;;;;;;;23.10;99.90;;;22.96;96.00;95457.91;10481535;28;2118;-73
2022/08/27 08:53:14;;;;;;;;;;;23.30;99.90;;;23.09;95.05;95454.66;10490015;28;2092;-73
2022/08/27 08:58:17;;;;;;;;;;;23.40;99.90;;;23.20;91.64;95458.41;10490970;28;1928;-73
2022/08/27 09:03:19;;;;;;;;;;;23.60;99.90;;;23.02;93.95;95456.47;10486918;28;2136;-72
2022/08/27 09:08:22;;;;;;;;;;;23.60;99.90;;;23.02;93.82;95454.50;10485504;28;1980;-71
2022/08/27 09:13:43;;;;;;;;;;;23.70;99.90;;;23.01;91.75;95454.88;10484561;28;1937;-72
2022/08/27 09:18:48;;;;;;;;;;;23.70;99.90;;;22.45;96.30;95457.97;10495367;28;1932;-72
2022/08/27 09:23:56;;;;;;;;;;;23.50;99.90;;;22.90;92.02;95462.88;10483067;28;2089;-70
2022/08/27 09:29:18;;;;;;;;;;;23.50;99.90;;;23.05;90.54;95463.97;10487684;28;1954;-74
2022/08/27 09:34:21;;;;;;;;;;;23.50;99.90;;;22.27;93.53;95457.59;10487357;28;2116;-75
2022/08/27 09:39:24;;;;;;;;;;;23.50;99.90;;;21.78;96.28;95460.66;10487361;28;1981;-74
2022/08/27 09:44:27;;;;;;;;;;;23.10;99.90;;;23.28;89.54;95461.28;10464941;28;1992;-74
2022/08/27 09:49:33;;;;;;;;;;;23.30;99.90;;;23.57;86.30;95457.13;10480711;28;1968;-75
2022/08/27 09:54:36;;;;;;;;;;;23.90;99.90;;;23.94;84.59;95444.47;10466033;28;2004;-75
2022/08/27 09:59:38;;;;;;;;;;;24.30;99.90;;;24.20;81.64;95445.66;10484542;28;1937;-74
2022/08/27 10:04:42;;;;;;;;;;;24.40;99.90;;;23.92;78.20;95441.31;10485051;28;1929;-75
2022/08/27 10:09:53;;;;;;;;;;;24.50;99.90;;;23.22;83.05;95443.53;10468486;28;2066;-75
2022/08/27 10:14:56;;;;;;;;;;;24.10;99.90;;;23.39;83.83;95440.34;10483186;28;2168;-75
2022/08/27 10:19:59;;;;;;;;;;;23.80;99.90;;;23.63;82.56;95440.03;10487346;28;1857;-75
2022/08/27 10:25:03;;;;;;;;;;;24.20;99.90;;;24.22;79.67;95438.63;10482033;28;2086;-76
2022/08/27 10:30:06;;;;;;;;;;;24.50;99.90;;;23.81;81.27;95432.09;10464758;28;2100;-73
2022/08/27 10:35:09;;;;;;;;;;;24.80;99.90;;;23.90;78.16;95438.13;10478623;28;1968;-76
2022/08/27 10:40:11;;;;;;;;;;;24.70;99.90;;;24.26;80.37;95439.50;10461380;28;1909;-76
2022/08/27 10:45:14;;;;;;;;;;;24.60;99.90;;;23.41;82.34;95432.53;10479839;28;1987;-76
2022/08/27 10:50:33;;;;;;;;;;;24.40;99.90;;;23.98;78.18;95436.28;10486600;28;1929;-76
2022/08/27 10:55:36;;;;;;;;;;;24.40;99.90;;;23.41;80.24;95436.09;10481032;28;1917;-74
2022/08/27 11:00:39;;;;;;;;;;;24.40;99.90;;;23.59;80.02;95425.41;10484160;28;1945;-75
2022/08/27 11:05:42;;;;;;;;;;;24.30;99.90;;;23.97;76.01;95416.28;10482324;28;1920;-77
2022/08/27 11:10:45;;;;;;;;;;;24.70;99.90;;;22.81;81.02;95405.53;10467058;28;2161;-75
2022/08/27 11:15:48;;;;;;;;;;;24.30;99.90;;;22.67;84.41;95406.03;10487064;28;1930;-74
2022/08/27 11:20:52;;;;;;;;;;;23.70;99.90;;;22.95;80.12;95402.31;10485254;28;1932;-74
2022/08/27 11:25:55;;;;;;;;;;;23.70;99.90;;;21.46;85.44;95405.94;10465566;28;2074;-73
2022/08/27 11:31:07;;;;;;;;;;;23.20;99.90;;;21.70;83.17;95406.94;10477544;28;1964;-73
2022/08/27 11:36:10;;;;;;;;;;;23.00;99.90;;;22.21;84.06;95398.78;10463740;28;1980;-74
2022/08/27 11:41:13;;;;;;;;;;;23.00;99.90;;;22.25;80.78;95400.41;10481452;28;1963;-75
2022/08/27 11:46:16;;;;;;;;;;;23.10;99.90;;;21.78;79.81;95403.22;10480316;28;1952;-74
2022/08/27 11:51:27;;;;;;;;;;;23.00;99.90;;;22.66;78.01;95393.50;10481079;28;2081;-74
2022/08/27 11:56:31;;;;;;;;;;;23.10;99.90;;;23.31;74.13;95386.53;10476546;28;1959;-73
2022/08/27 12:01:34;;;;;;;;;;;23.70;99.90;;;23.71;72.54;95386.06;10481186;28;1929;-74
2022/08/27 12:06:37;;;;;;;;;;;24.10;99.90;;;23.91;71.80;95373.03;10485492;28;2015;-81
2022/08/27 12:11:39;;;;;;;;;;;24.50;99.90;;;24.26;71.20;95373.56;10477576;28;1928;-75
2022/08/27 12:16:43;;;;;;;;;;;24.90;99.90;;;23.76;70.02;95372.03;10477700;28;2155;-73
2022/08/27 12:21:46;;;;;;;;;;;24.80;99.90;;;24.11;69.13;95371.81;10480438;28;1912;-72
2022/08/27 12:26:49;;;;;;;;;;;24.80;99.90;;;24.22;68.98;95349.97;10475083;28;1961;-74
2022/08/27 12:31:53;;;;;;;;;;;25.00;99.90;;;24.39;67.19;95338.47;10458443;28;2180;-75
2022/08/27 12:36:56;;;;;;;;;;;25.10;99.90;;;23.63;70.28;95344.00;10481798;28;2106;-73
2022/08/27 12:41:59;;;;;;;;;;;24.80;99.90;;;24.77;66.82;95340.09;10480423;28;1930;-71
2022/08/27 12:47:02;;;;;;;;;;;25.10;99.90;;;24.59;67.73;95341.06;10477299;28;1981;-74
2022/08/27 12:52:05;;;;;;;;;;;25.40;99.90;;;24.74;67.29;95338.09;10475850;28;1874;-75
2022/08/27 12:57:08;;;;;;;;;;;25.40;99.90;;;24.39;70.30;95340.41;10486223;28;2065;-72
2022/08/27 13:02:11;;;;;;;;;;;25.30;99.90;;;25.18;67.33;95333.88;10485822;28;1978;-75
2022/08/27 13:07:14;;;;;;;;;;;25.40;99.90;;;24.78;69.52;95333.44;10486287;28;1996;-75
2022/08/27 13:12:17;;;;;;;;;;;25.50;99.90;;;25.04;65.97;95329.00;10477520;28;1921;-70
2022/08/27 13:17:20;;;;;;;;;;;25.70;99.90;;;23.93;71.15;95324.06;10485692;28;1954;-74
2022/08/27 13:22:24;;;;;;;;;;;25.30;99.90;;;24.21;70.25;95312.69;10482871;28;1968;-76
2022/08/27 13:27:28;;;;;;;;;;;25.00;99.90;;;24.02;68.60;95308.13;10486606;28;1988;-75
2022/08/27 13:32:32;;;;;;;;;;;25.10;99.90;;;24.08;70.22;95305.84;10475607;28;1999;-75
2022/08/27 13:37:38;;;;;;;;;;;25.00;99.90;;;24.69;65.31;95302.72;10479159;28;2085;-75
2022/08/27 13:42:41;;;;;;;;;;;25.40;99.90;;;24.50;66.52;95306.44;10476781;28;2049;-75
2022/08/27 13:47:45;;;;;;;;;;;25.30;99.90;;;25.29;61.16;95302.56;10479695;28;1972;-74
2022/08/27 13:58:14;;;;;;;;;;;25.90;99.90;;;25.13;57.91;95304.78;10464106;28;1881;-73
2022/08/27 14:03:20;;;;;;;;;;;26.00;99.90;;;25.51;58.21;95309.03;10479858;28;1992;-72
2022/08/27 14:08:27;;;;;;;;;;;26.20;99.90;;;25.45;58.92;95315.25;10478961;28;1943;-73
2022/08/27 14:13:30;;;;;;;;;;;26.30;99.90;;;24.67;63.56;95316.03;10483192;28;2073;-75
2022/08/27 14:18:38;;;;;;;;;;;25.80;99.90;;;25.01;60.52;95318.78;10475283;28;2031;-74
2022/08/27 14:24:00;;;;;;;;;;;25.80;99.90;;;24.89;59.56;95324.53;10487703;28;1940;-73
2022/08/27 14:29:03;;;;;;;;;;;25.90;99.90;;;25.74;58.67;95306.09;10486019;28;2089;-73
2022/08/27 14:34:14;;;;;;;;;;;26.20;99.90;;;25.79;56.71;95311.25;10484748;28;1940;-75
2022/08/27 14:39:17;;;;;;;;;;;26.30;99.90;;;25.01;58.17;95302.28;10486483;28;1922;-74
2022/08/27 14:44:23;;;;;;;;;;;26.20;99.90;;;25.05;57.11;95298.41;10480482;28;2086;-74
2022/08/27 14:49:26;;;;;;;;;;;25.80;99.90;;;24.97;56.76;95298.69;10486714;28;2081;-72
2022/08/27 14:54:29;;;;;;;;;;;25.80;99.90;;;24.95;56.34;95288.06;10463943;28;2071;-72
2022/08/27 14:59:35;;;;;;;;;;;25.90;99.90;;;25.11;56.75;95290.59;10486742;28;1951;-77
2022/08/27 15:04:39;;;;;;;;;;;25.90;99.90;;;25.25;55.49;95279.72;10486360;28;2184;-77
2022/08/27 15:09:45;;;;;;;;;;;25.90;99.90;;;24.64;55.95;95288.53;10485866;28;2012;-77
2022/08/27 15:14:48;;;;;;;;;;;25.70;99.90;;;25.41;55.18;95270.44;10479896;28;2160;-79
2022/08/27 15:19:51;;;;;;;;;;;26.10;99.90;;;24.65;58.25;95279.09;10493418;28;2032;-80
2022/08/27 15:24:54;;;;;;;;;;;25.90;99.90;;;24.13;60.29;95276.09;10485842;28;2240;-79
2022/08/27 15:29:57;;;;;;;;;;;25.30;99.90;;;24.73;59.37;95276.06;10491084;28;2489;-70
2022/08/27 15:35:00;;;;;;;;;;;25.40;99.90;;;24.57;60.44;95272.75;10481339;28;1941;-69
2022/08/27 15:40:03;;;;;;;;;;;25.40;99.90;;;25.01;57.54;95285.78;10481281;28;1949;-69
2022/08/27 15:45:06;;;;;;;;;;;25.50;99.90;;;24.77;59.93;95276.09;10469750;28;2144;-73
2022/08/27 15:50:08;;;;;;;;;;;25.60;99.90;;;24.13;66.96;95284.34;10474784;28;1910;-72
2022/08/27 15:55:13;;;;;;;;;;;25.20;99.90;;;23.78;69.58;95303.06;10472477;28;2054;-71
2022/08/27 16:00:16;;;;;;;;;;;24.80;99.90;;;23.60;72.50;95298.09;10473386;28;1909;-72
2022/08/27 16:05:20;;;;;;;;;;;24.50;99.90;;;23.68;72.46;95305.28;10471040;28;2081;-72
2022/08/27 16:10:23;;;;;;;;;;;24.50;99.90;;;23.82;72.90;95312.16;10468911;28;1908;-72
2022/08/27 16:15:26;;;;;;;;;;;24.50;99.90;;;23.68;73.60;95305.28;10470315;28;1974;-73
2022/08/27 16:20:29;;;;;;;;;;;24.50;99.90;;;23.50;74.88;95304.19;10470163;28;2049;-72
2022/08/27 16:25:32;;;;;;;;;;;24.40;99.90;;;23.23;77.90;95308.03;10476394;28;1960;-72
2022/08/27 16:30:35;;;;;;;;;;;24.10;99.90;;;23.16;79.36;95300.50;10484151;28;1838;-72
2022/08/27 16:35:38;;;;;;;;;;;23.90;99.90;;;22.83;81.06;95299.06;10481497;28;1930;-73
2022/08/27 16:40:42;;;;;;;;;;;23.80;99.90;;;22.56;82.07;95300.91;10480654;28;2212;-72
2022/08/27 16:45:45;;;;;;;;;;;23.60;99.90;;;22.35;82.17;95300.50;10478243;28;1934;-72
2022/08/27 16:50:48;;;;;;;;;;;23.40;99.90;;;22.24;81.32;95304.97;10483833;28;1941;-72
2022/08/27 16:55:51;;;;;;;;;;;23.20;99.90;;;22.22;81.66;95312.75;10480844;28;1933;-71
2022/08/27 17:00:58;;;;;;;;;;;23.10;99.90;;;22.15;81.68;95316.13;10483701;28;1929;-71
2022/08/27 17:06:01;;;;;;;;;;;23.10;99.90;;;21.83;80.35;95323.59;10471358;28;1994;-70
2022/08/27 17:11:05;;;;;;;;;;;22.90;99.90;;;21.72;79.28;95326.09;10475087;28;1920;-70
2022/08/27 17:16:08;;;;;;;;;;;22.80;99.90;;;21.65;79.85;95327.88;10480094;28;1972;-70
2022/08/27 17:21:11;;;;;;;;;;;22.60;99.90;;;21.38;80.26;95330.38;10473306;28;2028;-69
2022/08/27 17:26:13;;;;;;;;;;;22.40;99.90;;;21.25;83.63;95329.63;10478289;28;2028;-72
2022/08/27 17:31:16;;;;;;;;;;;22.10;99.90;;;21.13;92.02;95340.66;10475791;28;2108;-72
2022/08/27 17:36:29;;;;;;;;;;;22.10;99.90;;;20.93;100.00;95347.94;10476377;28;1953;-71
2022/08/27 17:41:32;;;;;;;;;;;22.00;99.90;;;20.67;100.00;95355.78;10484352;28;1874;-73
2022/08/27 17:46:36;;;;;;;;;;;21.70;99.90;;;20.67;100.00;95350.31;10479887;28;1965;-72
2022/08/27 17:51:39;;;;;;;;;;;;;;;20.49;100.00;95350.63;10476502;28;2004;-70
2022/08/27 17:56:42;;;;;;;;;;;21.50;99.90;;;20.31;100.00;95362.94;10469170;28;2211;-71
2022/08/27 18:01:45;;;;;;;;;;;21.20;99.90;;;20.24;100.00;95370.94;10481283;28;2182;-69
2022/08/27 18:06:48;;;;;;;;;;;21.30;99.90;;;20.14;100.00;95372.19;10480155;28;2085;-69
2022/08/27 18:11:51;;;;;;;;;;;21.20;99.90;;;20.13;100.00;95372.53;10480833;28;1969;-69
2022/08/27 18:16:55;;;;;;;;;;;21.20;99.90;;;20.12;100.00;95381.88;10476679;28;1889;-69
2022/08/27 18:22:04;;;;;;;;;;;21.10;99.90;;;20.00;100.00;95398.25;10477051;28;1952;-71
2022/08/27 18:27:07;;;;;;;;;;;21.00;99.90;;;19.93;100.00;95409.75;10478080;28;1979;-70
2022/08/27 18:32:11;;;;;;;;;;;21.00;99.90;;;19.96;100.00;95412.56;10477103;28;1905;-70
2022/08/27 18:37:18;;;;;;;;;;;20.90;99.90;;;19.93;100.00;95410.53;10477906;28;2110;-71
2022/08/27 18:42:20;;;;;;;;;;;20.90;99.90;;;19.83;100.00;95419.16;10477332;28;1882;-74
2022/08/27 18:47:24;;;;;;;;;;;20.90;99.90;;;19.86;100.00;95418.50;10459641;28;1956;-74
2022/08/27 18:52:27;;;;;;;;;;;20.80;99.90;;;19.82;100.00;95424.97;10476264;28;1920;-71
2022/08/27 18:57:30;;;;;;;;;;;20.80;99.90;;;19.80;100.00;95428.03;10454320;28;2063;-72
2022/08/27 19:02:33;;;;;;;;;;;20.80;99.90;;;19.74;100.00;95440.31;10459485;28;1953;-70
2022/08/27 19:07:36;;;;;;;;;;;20.80;99.90;;;19.77;100.00;95444.28;10478693;28;2081;-69
2022/08/27 19:12:39;;;;;;;;;;;20.70;99.90;;;19.72;100.00;95448.00;10472274;28;2108;-70
2022/08/27 19:17:42;;;;;;;;;;;20.60;99.90;;;19.65;100.00;95454.03;10472076;28;2044;-72
2022/08/27 19:22:44;;;;;;;;;;;20.60;99.90;;;19.68;100.00;95453.38;10469781;28;2126;-71
2022/08/27 19:27:47;;;;;;;;;;;20.60;99.90;;;19.61;100.00;95452.34;10478158;28;1976;-71
2022/08/27 19:32:51;;;;;;;;;;;20.60;99.90;;;19.53;100.00;95450.44;10475008;28;1898;-70
2022/08/27 19:37:58;;;;;;;;;;;20.50;99.90;;;19.21;100.00;95458.31;10476825;28;1931;-70
2022/08/27 19:43:02;;;;;;;;;;;20.40;99.90;;;18.88;100.00;95470.00;10470965;28;1882;-70
2022/08/27 19:48:05;;;;;;;;;;;20.10;99.90;;;18.57;100.00;95472.31;10472873;28;2054;-70
2022/08/27 19:53:08;;;;;;;;;;;19.90;99.90;;;18.39;100.00;95481.75;10471375;28;3142;-70
2022/08/27 19:58:14;;;;;;;;;;;19.50;99.90;;;18.28;100.00;95473.97;10474367;28;2094;-70
2022/08/27 20:03:18;;;;;;;;;;;19.60;99.90;;;18.06;100.00;95483.19;10484427;28;2036;-71
2022/08/27 20:08:20;;;;;;;;;;;19.30;99.90;;;18.05;100.00;95488.97;10484538;28;1933;-72
2022/08/27 20:13:23;;;;;;;;;;;19.00;99.90;;;18.01;100.00;95483.41;10479388;28;2001;-71
2022/08/27 20:18:28;;;;;;;;;;;18.80;99.90;;;18.02;100.00;95486.91;10485098;28;2263;-70
2022/08/27 20:23:30;;;;;;;;;;;19.20;99.90;;;18.03;100.00;95496.66;10484346;28;1936;-71
2022/08/27 20:28:34;;;;;;;;;;;19.10;99.90;;;18.04;100.00;95490.09;10482461;28;1934;-71
2022/08/27 20:33:42;;;;;;;;;;;19.10;99.90;;;18.02;100.00;95492.34;10478344;28;1977;-72
2022/08/27 20:38:44;;;;;;;;;;;18.80;99.90;;;18.03;100.00;95497.47;10480338;28;1900;-72
2022/08/27 20:43:47;;;;;;;;;;;18.90;99.90;;;18.08;100.00;95502.72;10482829;28;1873;-71
2022/08/27 20:48:50;;;;;;;;;;;19.20;99.90;;;18.03;100.00;95502.09;10479367;28;2013;-72
2022/08/27 20:53:53;;;;;;;;;;;19.00;99.90;;;18.00;100.00;95514.41;10478589;28;2113;-72
2022/08/27 21:04:17;;;;;;;;;;;18.90;99.90;;;17.79;100.00;95514.34;10480006;28;2020;-72
2022/08/27 21:09:20;;;;;;;;;;;18.70;99.90;;;17.65;100.00;95511.03;10477868;28;2102;-72
2022/08/27 21:14:22;;;;;;;;;;;18.60;99.90;;;17.59;100.00;95514.25;10479558;28;1886;-72
2022/08/27 21:19:29;;;;;;;;;;;18.50;99.90;;;17.48;100.00;95519.22;10477984;28;1961;-73
2022/08/27 21:24:42;;;;;;;;;;;18.30;99.90;;;17.37;100.00;95529.66;10487417;28;1983;-72
2022/08/27 21:29:44;;;;;;;;;;;18.40;99.90;;;17.26;100.00;95534.59;10485905;28;1973;-72
2022/08/27 21:34:47;;;;;;;;;;;18.20;99.90;;;17.03;100.00;95539.41;10485421;28;2001;-70
2022/08/27 21:39:50;;;;;;;;;;;17.90;99.90;;;16.99;100.00;95538.47;10486487;28;1900;-72
2022/08/27 21:44:53;;;;;;;;;;;17.90;99.90;;;16.94;100.00;95535.91;10485508;28;2016;-70
2022/08/27 21:49:57;;;;;;;;;;;17.80;99.90;;;16.94;100.00;95540.53;10481647;28;2078;-71
2022/08/27 21:55:01;;;;;;;;;;;17.80;99.90;;;16.87;100.00;95545.66;10483422;28;2108;-71
2022/08/27 22:00:09;;;;;;;;;;;17.70;99.90;;;16.78;100.00;95547.56;10486121;28;1876;-70
2022/08/27 22:05:12;;;;;;;;;;;17.60;99.90;;;16.78;100.00;95542.13;10486697;28;2137;-72
2022/08/27 22:10:14;;;;;;;;;;;17.60;99.90;;;16.68;100.00;95549.44;10483667;28;2143;-72
2022/08/27 22:15:17;;;;;;;;;;;17.40;99.90;;;16.65;100.00;95549.25;10487156;28;2121;-71
2022/08/27 22:20:20;;;;;;;;;;;17.50;99.90;;;16.49;100.00;95555.16;10489118;28;1962;-72
2022/08/27 22:25:23;;;;;;;;;;;17.40;99.90;;;16.48;100.00;95564.41;10486028;28;1949;-73
2022/08/27 22:30:26;;;;;;;;;;;17.50;99.90;;;16.54;100.00;95562.34;10489984;28;2010;-73
2022/08/27 22:35:29;;;;;;;;;;;17.30;99.90;;;16.60;100.00;95571.13;10491275;28;1914;-71
2022/08/27 22:40:32;;;;;;;;;;;17.30;99.90;;;16.67;100.00;95564.13;10484131;28;1901;-72
2022/08/27 22:45:35;;;;;;;;;;;17.40;99.90;;;16.65;100.00;95563.63;10482771;28;2160;-71
2022/08/27 22:50:38;;;;;;;;;;;17.50;99.90;;;16.62;100.00;95560.75;10487946;28;1928;-71
2022/08/27 22:55:41;;;;;;;;;;;17.30;99.90;;;16.60;100.00;95561.06;10482166;28;2000;-71
2022/08/27 23:00:49;;;;;;;;;;;17.60;99.90;;;16.57;100.00;95556.28;10482702;28;2131;-72
2022/08/27 23:06:04;;;;;;;;;;;17.40;99.90;;;16.47;100.00;95559.28;10491730;28;1955;-71
2022/08/27 23:11:07;;;;;;;;;;;17.50;99.90;;;16.41;100.00;95555.13;10482476;28;1961;-71
2022/08/27 23:16:10;;;;;;;;;;;17.40;99.90;;;16.42;100.00;95551.31;10474633;28;1969;-71
2022/08/27 23:21:13;;;;;;;;;;;17.20;99.90;;;17.05;100.00;95544.53;10479441;28;1917;-70
2022/08/27 23:31:37;;;;;;;;;;;18.00;99.90;;;17.50;100.00;95528.66;10485383;28;1926;-70